Time;durP1;ratioP1;P1;durP2;ratioP2;P2;SDS_P1;SDS_P2;PMS_P1;PMS_P2;Temp;Humidity;BMP_temperature;BMP_pressure;BME280_temperature;BME280_humidity;BME280_pressure;Samples;Min_cycle;Max_cycle;Signal;HPM_P1;HPM_P2
2022/02/24 00:01:45;;;;;;;9.35;3.53;;;9.50;99.90;;;;;;5163849;22;20016;-64
2022/02/24 00:03:46;;;;;;;9.05;2.63;;;9.50;99.90;;;;;;5164636;22;20062;-64
2022/02/24 00:05:46;;;;;;;13.40;2.88;;;9.50;99.90;;;;;;5164102;22;20011;-64
2022/02/24 00:07:47;;;;;;;8.95;2.60;;;9.50;99.90;;;;;;5164659;22;20012;-64
2022/02/24 00:09:47;;;;;;;9.00;2.70;;;9.50;99.90;;;;;;5164815;22;20012;-64
2022/02/24 00:11:48;;;;;;;8.20;3.00;;;9.50;99.90;;;;;;5164048;22;20085;-65
2022/02/24 00:13:49;;;;;;;9.38;2.45;;;9.50;99.90;;;;;;5164307;22;20004;-66
2022/02/24 00:15:49;;;;;;;11.65;2.45;;;9.50;99.90;;;;;;5164481;22;20083;-66
2022/02/24 00:17:50;;;;;;;9.88;3.10;;;9.50;99.90;;;;;;5165370;22;20018;-66
2022/02/24 00:19:50;;;;;;;9.50;3.08;;;9.50;99.90;;;;;;5164261;22;20012;-65
2022/02/24 00:21:51;;;;;;;6.72;2.53;;;9.50;99.90;;;;;;5164219;22;20352;-65
2022/02/24 00:23:52;;;;;;;7.72;2.45;;;9.50;99.90;;;;;;5165439;22;20013;-65
2022/02/24 00:25:52;;;;;;;9.02;2.58;;;9.40;99.90;;;;;;5163897;22;20353;-64
2022/02/24 00:27:53;;;;;;;8.98;2.35;;;9.40;99.90;;;;;;5164474;22;20016;-65
2022/02/24 00:29:53;;;;;;;9.68;2.92;;;9.40;99.90;;;;;;5164896;22;20078;-64
2022/02/24 00:31:54;;;;;;;8.63;2.80;;;9.40;99.90;;;;;;5163884;22;20436;-64
2022/02/24 00:33:54;;;;;;;8.13;2.70;;;9.40;99.90;;;;;;5164908;22;20075;-65
2022/02/24 00:35:55;;;;;;;8.77;2.80;;;9.50;99.90;;;;;;5163695;22;20039;-65
2022/02/24 00:37:56;;;;;;;10.15;2.60;;;9.50;99.90;;;;;;5164667;22;20400;-65
2022/02/24 00:39:56;;;;;;;6.18;2.40;;;9.50;99.90;;;;;;5164350;22;20009;-65
2022/02/24 00:41:57;;;;;;;10.13;2.72;;;9.50;99.90;;;;;;5163507;22;20035;-64
2022/02/24 00:43:58;;;;;;;9.25;3.17;;;9.50;99.90;;;;;;5138904;23;20016;-65
2022/02/24 00:45:58;;;;;;;9.13;2.88;;;9.50;99.90;;;;;;5139700;23;20329;-65
2022/02/24 00:47:59;;;;;;;8.40;2.65;;;9.40;99.90;;;;;;5140948;23;20071;-65
2022/02/24 00:50:00;;;;;;;7.55;2.78;;;9.40;99.90;;;;;;5140588;23;20032;-65
2022/02/24 00:52:00;;;;;;;7.68;2.90;;;9.40;99.90;;;;;;5139958;23;20072;-65
2022/02/24 00:54:02;;;;;;;7.00;3.05;;;9.40;99.90;;;;;;5140276;23;20143;-65
2022/02/24 00:56:03;;;;;;;9.10;3.03;;;9.40;99.90;;;;;;5139639;23;20471;-65
2022/02/24 00:58:03;;;;;;;9.27;2.95;;;9.40;99.90;;;;;;5140752;23;20013;-65
2022/02/24 01:00:05;;;;;;;9.05;2.90;;;9.50;99.90;;;;;;5139309;23;20348;-67
2022/02/24 01:02:06;;;;;;;10.27;3.30;;;9.50;99.90;;;;;;5139024;23;20013;-65
2022/02/24 01:04:06;;;;;;;11.95;3.30;;;9.50;99.90;;;;;;5139218;23;20287;-65
2022/02/24 01:06:07;;;;;;;7.18;2.60;;;9.50;99.90;;;;;;5138287;23;20055;-64
2022/02/24 01:08:08;;;;;;;6.60;2.70;;;9.40;99.90;;;;;;5138941;23;20013;-65
2022/02/24 01:10:09;;;;;;;12.88;3.30;;;9.40;99.90;;;;;;5136186;23;20012;-66
2022/02/24 01:12:10;;;;;;;7.23;2.73;;;9.40;99.90;;;;;;5139625;22;20013;-64
2022/02/24 01:14:11;;;;;;;6.47;2.70;;;9.30;99.90;;;;;;5139526;23;20232;-64
2022/02/24 01:16:11;;;;;;;10.55;3.03;;;9.40;99.90;;;;;;5138934;23;20013;-64
2022/02/24 01:18:12;;;;;;;12.70;3.45;;;9.40;99.90;;;;;;5139639;23;20463;-65
2022/02/24 01:20:13;;;;;;;6.85;2.35;;;9.40;99.90;;;;;;5138784;23;20013;-65
2022/02/24 01:22:13;;;;;;;7.60;2.50;;;9.40;99.90;;;;;;5139263;23;20499;-65
2022/02/24 01:24:14;;;;;;;5.63;2.30;;;9.40;99.90;;;;;;5139335;23;20091;-64
2022/02/24 01:26:15;;;;;;;9.55;2.90;;;9.40;99.90;;;;;;5138448;23;20369;-64
2022/02/24 01:28:16;;;;;;;8.98;2.67;;;9.40;99.90;;;;;;5138940;23;20084;-64
2022/02/24 01:30:16;;;;;;;9.18;2.60;;;9.40;99.90;;;;;;5138083;23;20055;-64
2022/02/24 01:32:17;;;;;;;6.35;2.55;;;9.40;99.90;;;;;;5139150;23;20016;-64
2022/02/24 01:34:19;;;;;;;5.80;2.72;;;9.40;99.90;;;;;;5139051;23;20506;-64
2022/02/24 01:36:20;;;;;;;5.95;2.47;;;9.40;99.90;;;;;;5137792;23;20005;-66
2022/02/24 01:38:21;;;;;;;9.90;2.95;;;9.40;99.90;;;;;;5139234;23;20140;-65
2022/02/24 01:40:22;;;;;;;8.23;2.70;;;9.40;99.90;;;;;;5138184;23;20005;-65
2022/02/24 01:42:23;;;;;;;7.90;2.88;;;9.40;99.90;;;;;;5139134;23;20008;-65
2022/02/24 01:44:23;;;;;;;8.20;2.90;;;9.40;99.90;;;;;;5139329;23;20012;-65
2022/02/24 01:46:24;;;;;;;9.85;3.20;;;9.40;99.90;;;;;;5138138;23;20009;-65
2022/02/24 01:48:25;;;;;;;8.45;2.90;;;9.30;99.90;;;;;;5138803;23;20015;-65
2022/02/24 01:50:26;;;;;;;9.02;3.25;;;9.30;99.90;;;;;;5137671;23;20008;-64
2022/02/24 01:52:27;;;;;;;13.18;3.70;;;9.30;99.90;;;;;;5139462;23;20369;-65
2022/02/24 01:54:28;;;;;;;10.00;3.08;;;9.30;99.90;;;;;;5139212;23;20063;-65
2022/02/24 01:56:29;;;;;;;12.30;3.15;;;9.30;99.90;;;;;;5161354;23;20343;-65
2022/02/24 01:58:30;;;;;;;7.75;2.65;;;9.30;99.90;;;;;;5138217;23;20008;-65
2022/02/24 02:00:30;;;;;;;5.07;2.22;;;9.30;99.90;;;;;;5164143;22;20016;-65
2022/02/24 02:02:31;;;;;;;6.82;2.53;;;9.30;99.90;;;;;;5163295;22;20012;-65
2022/02/24 02:04:32;;;;;;;11.93;2.70;;;9.40;99.90;;;;;;5164875;22;20008;-65
2022/02/24 02:06:34;;;;;;;5.95;2.20;;;9.30;99.90;;;;;;5163814;22;20016;-65
2022/02/24 02:08:35;;;;;;;9.23;2.67;;;9.40;99.90;;;;;;5164168;22;20379;-65
2022/02/24 02:10:35;;;;;;;5.30;2.25;;;9.40;99.90;;;;;;5163543;22;20004;-65
2022/02/24 02:12:47;;;;;;;8.98;2.88;;;9.40;99.90;;;;;;5164387;22;20062;-64
2022/02/24 02:14:48;;;;;;;12.50;3.00;;;9.40;99.90;;;;;;5163495;22;20016;-64
2022/02/24 02:16:50;;;;;;;8.88;2.72;;;9.40;99.90;;;;;;5162573;22;20012;-64
2022/02/24 02:18:51;;;;;;;;;;;9.30;99.90;;;;;;5138878;23;20047;-65
2022/02/24 02:20:52;;;;;;;6.72;2.28;;;9.30;99.90;;;;;;5137879;23;20224;-64
2022/02/24 02:22:54;;;;;;;10.85;3.17;;;9.30;99.90;;;;;;5138972;23;20008;-65
2022/02/24 02:25:00;;;;;;;8.88;3.00;;;9.30;99.90;;;;;;5138912;23;20005;-65
2022/02/24 02:27:00;;;;;;;10.55;2.85;;;9.20;99.90;;;;;;5137723;23;20504;-66
2022/02/24 02:29:03;;;;;;;11.00;2.70;;;9.30;99.90;;;;;;5139713;23;20058;-65
2022/02/24 02:31:04;;;;;;;6.82;2.42;;;9.30;99.90;;;;;;5139580;23;20009;-65
2022/02/24 02:33:04;;;;;;;9.80;2.97;;;9.30;99.90;;;;;;5139853;23;20009;-64
2022/02/24 02:35:05;;;;;;;8.07;3.10;;;9.30;99.90;;;;;;5139433;23;20463;-66
2022/02/24 02:37:06;;;;;;;8.15;2.58;;;9.30;99.90;;;;;;5139238;23;20019;-65
2022/02/24 02:39:11;;;;;;;9.20;2.45;;;9.30;99.90;;;;;;5139724;23;20009;-64
2022/02/24 02:41:12;;;;;;;7.10;2.50;;;9.30;99.90;;;;;;5138614;23;20009;-64
2022/02/24 02:43:13;;;;;;;7.43;2.72;;;9.30;99.90;;;;;;5139262;23;20064;-64
2022/02/24 02:45:14;;;;;;;12.20;2.80;;;9.30;99.90;;;;;;5138277;23;20024;-65
2022/02/24 02:47:14;;;;;;;8.75;3.15;;;9.30;99.90;;;;;;5138983;23;20047;-65
2022/02/24 02:49:15;;;;;;;9.77;2.80;;;9.30;99.90;;;;;;5138915;23;20087;-65
2022/02/24 02:51:16;;;;;;;11.55;3.28;;;9.30;99.90;;;;;;5138048;23;20028;-64
2022/02/24 02:53:16;;;;;;;9.85;2.95;;;9.30;99.90;;;;;;5139102;23;20063;-65
2022/02/24 02:55:17;;;;;;;12.90;3.15;;;9.30;99.90;;;;;;5137899;23;20012;-65
2022/02/24 02:57:18;;;;;;;11.10;2.40;;;9.30;99.90;;;;;;5138555;23;20098;-65
2022/02/24 02:59:19;;;;;;;10.63;2.67;;;9.30;99.90;;;;;;5149008;23;20024;-64
2022/02/24 03:01:19;;;;;;;10.52;2.97;;;9.30;99.90;;;;;;5162741;23;20061;-64
2022/02/24 03:03:24;;;;;;;7.55;2.58;;;9.20;99.90;;;;;;5164649;23;20027;-66
2022/02/24 03:05:25;;;;;;;9.60;2.42;;;9.20;99.90;;;;;;5164169;23;20023;-64
2022/02/24 03:07:25;;;;;;;8.25;2.97;;;9.20;99.90;;;;;;5165050;23;20016;-64
2022/02/24 03:09:26;;;;;;;11.65;2.58;;;9.20;99.90;;;;;;5165218;23;20103;-64
2022/02/24 03:11:26;;;;;;;9.15;2.80;;;9.30;99.90;;;;;;5164505;23;20384;-65
2022/02/24 03:13:27;;;;;;;8.80;2.75;;;9.20;99.90;;;;;;5165319;23;20004;-65
2022/02/24 03:15:27;;;;;;;11.00;2.75;;;9.20;99.90;;;;;;5164094;23;20066;-65
2022/02/24 03:17:28;;;;;;;10.77;2.85;;;9.20;99.90;;;;;;5165023;23;20016;-64
2022/02/24 03:19:29;;;;;;;9.15;2.67;;;9.20;99.90;;;;;;5165015;23;20015;-64
2022/02/24 03:21:29;;;;;;;7.70;2.50;;;9.20;99.90;;;;;;5164227;23;20087;-65
2022/02/24 03:23:30;;;;;;;10.65;2.78;;;9.20;99.90;;;;;;5164983;23;20493;-64
2022/02/24 03:25:30;;;;;;;7.47;2.40;;;9.20;99.90;;;;;;5163538;23;20392;-66
2022/02/24 03:27:31;;;;;;;5.88;1.98;;;9.20;99.90;;;;;;5166335;23;20020;-65
2022/02/24 03:29:33;;;;;;;11.77;2.67;;;9.20;99.90;;;;;;5166330;23;20012;-65
2022/02/24 03:31:34;;;;;;;5.57;2.28;;;9.30;99.90;;;;;;5165149;23;20040;-65
2022/02/24 03:33:36;;;;;;;10.48;2.80;;;9.20;99.90;;;;;;5165874;23;20008;-65
2022/02/24 03:35:37;;;;;;;8.32;2.67;;;9.20;99.90;;;;;;5164822;23;20336;-65
2022/02/24 03:37:38;;;;;;;7.13;2.35;;;9.20;99.90;;;;;;5165019;23;20027;-64
2022/02/24 03:39:38;;;;;;;8.07;2.65;;;9.30;99.90;;;;;;5164658;23;20009;-65
2022/02/24 03:41:39;;;;;;;11.48;2.55;;;9.20;99.90;;;;;;5164504;23;20001;-65
2022/02/24 03:43:39;;;;;;;9.50;3.00;;;9.20;99.90;;;;;;5165393;23;20479;-65
2022/02/24 03:45:40;;;;;;;9.70;2.95;;;9.20;99.90;;;;;;5164683;23;20100;-64
2022/02/24 03:47:41;;;;;;;9.52;2.35;;;9.20;99.90;;;;;;5164958;23;20028;-65
2022/02/24 03:49:41;;;;;;;11.40;2.53;;;9.20;99.90;;;;;;5165286;23;20420;-65
2022/02/24 03:51:42;;;;;;;8.43;2.85;;;9.20;99.90;;;;;;5164383;23;20482;-65
2022/02/24 03:53:43;;;;;;;4.38;2.03;;;9.20;99.90;;;;;;5164895;23;20035;-64
2022/02/24 03:55:44;;;;;;;16.42;3.00;;;9.20;99.90;;;;;;5164099;23;20028;-65
2022/02/24 03:57:44;;;;;;;13.27;3.28;;;9.20;99.90;;;;;;5165034;23;20023;-64
2022/02/24 03:59:45;;;;;;;11.63;2.92;;;9.20;99.90;;;;;;5164149;23;20470;-64
2022/02/24 04:01:46;;;;;;;7.50;2.65;;;9.10;99.90;;;;;;5163651;23;20032;-64
2022/02/24 04:03:46;;;;;;;8.35;2.58;;;9.10;99.90;;;;;;5164475;23;20012;-64
2022/02/24 04:05:47;;;;;;;9.10;2.42;;;9.10;99.90;;;;;;5163847;23;20400;-65
2022/02/24 04:07:48;;;;;;;8.05;2.55;;;9.10;99.90;;;;;;5163960;23;20009;-65
2022/02/24 04:09:48;;;;;;;7.35;2.28;;;9.10;99.90;;;;;;5164649;23;20012;-65
2022/02/24 04:11:49;;;;;;;12.23;3.42;;;9.10;99.90;;;;;;5163379;23;20004;-65
2022/02/24 04:13:49;;;;;;;9.20;2.45;;;9.20;99.90;;;;;;5164268;23;20005;-64
2022/02/24 04:15:50;;;;;;;10.10;2.75;;;9.10;99.90;;;;;;5163912;23;20007;-65
2022/02/24 04:17:50;;;;;;;7.68;2.03;;;9.10;99.90;;;;;;5163904;23;20023;-64
2022/02/24 04:19:51;;;;;;;10.20;2.42;;;9.10;99.90;;;;;;5164188;23;20397;-65
2022/02/24 04:21:52;;;;;;;9.18;3.00;;;9.10;99.90;;;;;;5163791;23;20041;-65
2022/02/24 04:23:53;;;;;;;10.13;2.70;;;9.10;99.90;;;;;;5164855;23;20008;-65
2022/02/24 04:25:53;;;;;;;16.60;2.75;;;9.10;99.90;;;;;;5164018;23;20530;-64
2022/02/24 04:27:54;;;;;;;7.30;2.30;;;9.10;99.90;;;;;;5164260;23;20024;-65
2022/02/24 04:29:54;;;;;;;8.88;2.33;;;9.10;99.90;;;;;;5164197;23;20463;-65
2022/02/24 04:31:55;;;;;;;10.27;3.05;;;9.10;99.90;;;;;;5163561;23;20019;-65
2022/02/24 04:33:56;;;;;;;6.68;2.42;;;9.10;99.90;;;;;;5164316;23;20177;-65
2022/02/24 04:35:57;;;;;;;8.80;2.30;;;9.10;99.90;;;;;;5163308;23;20087;-64
2022/02/24 04:37:57;;;;;;;11.93;3.20;;;9.10;99.90;;;;;;5164061;23;20012;-65
2022/02/24 04:39:58;;;;;;;10.95;2.72;;;9.20;99.90;;;;;;5163947;23;20055;-65
2022/02/24 04:41:58;;;;;;;7.93;2.50;;;9.20;99.90;;;;;;5163370;23;20382;-65
2022/02/24 04:43:59;;;;;;;10.52;2.70;;;9.20;99.90;;;;;;5163845;23;20009;-64
2022/02/24 04:46:00;;;;;;;8.73;2.50;;;9.20;99.90;;;;;;5163434;23;20440;-64
2022/02/24 04:48:01;;;;;;;9.50;2.92;;;9.20;99.90;;;;;;5163759;23;20156;-65
2022/02/24 04:50:05;;;;;;;7.40;2.30;;;9.20;99.90;;;;;;5163498;23;20016;-65
2022/02/24 04:52:06;;;;;;;11.65;2.63;;;9.20;99.90;;;;;;5164511;23;20016;-65
2022/02/24 04:54:06;;;;;;;8.05;2.33;;;9.20;99.90;;;;;;5164666;23;20015;-65
2022/02/24 04:56:07;;;;;;;10.13;2.75;;;9.20;99.90;;;;;;5163838;23;20075;-65
2022/02/24 04:58:08;;;;;;;17.50;2.95;;;9.20;99.90;;;;;;5164797;23;20012;-65
2022/02/24 05:00:10;;;;;;;9.23;2.60;;;9.20;99.90;;;;;;5163475;23;20020;-65
2022/02/24 05:02:10;;;;;;;8.75;2.60;;;9.20;99.90;;;;;;5163400;23;20090;-64
2022/02/24 05:04:11;;;;;;;10.32;2.80;;;9.20;99.90;;;;;;5164234;23;20021;-64
2022/02/24 05:06:12;;;;;;;10.55;3.00;;;9.20;99.90;;;;;;5163785;23;20107;-65
2022/02/24 05:08:12;;;;;;;6.07;2.60;;;9.20;99.90;;;;;;5164511;23;20016;-64
2022/02/24 05:10:13;;;;;;;7.03;2.45;;;9.20;99.90;;;;;;5163653;23;20083;-64
2022/02/24 05:12:13;;;;;;;8.70;2.00;;;9.20;99.90;;;;;;5161872;23;20063;-64
2022/02/24 05:14:14;;;;;;;8.15;2.40;;;9.20;99.90;;;;;;5162495;23;20016;-64
2022/02/24 05:16:14;;;;;;;8.48;2.58;;;9.20;99.90;;;;;;5161851;23;20001;-64
2022/02/24 05:18:15;;;;;;;8.68;2.58;;;9.20;99.90;;;;;;5162320;23;20016;-64
2022/02/24 05:20:16;;;;;;;8.45;2.53;;;9.20;99.90;;;;;;5161500;23;20867;-64
2022/02/24 05:22:17;;;;;;;9.07;2.40;;;9.20;99.90;;;;;;5161999;23;20016;-64
2022/02/24 05:24:17;;;;;;;7.05;2.13;;;9.20;99.90;;;;;;5161704;23;20445;-64
2022/02/24 05:26:19;;;;;;;10.60;2.35;;;9.20;99.90;;;;;;5161503;23;20079;-64
2022/02/24 05:28:20;;;;;;;9.50;2.80;;;9.20;99.90;;;;;;5162194;23;20015;-65
2022/02/24 05:30:20;;;;;;;10.93;2.88;;;9.10;99.90;;;;;;5161536;23;20032;-64
2022/02/24 05:32:21;;;;;;;8.23;2.33;;;9.20;99.90;;;;;;5161489;23;20008;-65
2022/02/24 05:34:22;;;;;;;9.32;2.60;;;9.10;99.90;;;;;;5162078;23;20016;-65
2022/02/24 05:36:22;;;;;;;12.23;2.85;;;9.10;99.90;;;;;;5161691;23;20028;-65
2022/02/24 05:38:23;;;;;;;11.80;2.60;;;9.10;99.90;;;;;;5162702;23;20010;-65
2022/02/24 05:40:23;;;;;;;6.72;2.63;;;9.10;99.90;;;;;;5161942;23;20444;-64
2022/02/24 05:42:24;;;;;;;7.10;2.30;;;9.00;99.90;;;;;;5161086;23;20054;-65
2022/02/24 05:44:25;;;;;;;7.10;2.30;;;9.00;99.90;;;;;;5162369;23;20008;-64
2022/02/24 05:46:26;;;;;;;5.07;2.13;;;9.00;99.90;;;;;;5161613;23;20011;-64
2022/02/24 05:48:26;;;;;;;8.30;2.22;;;9.00;99.90;;;;;;5162293;23;20435;-65
2022/02/24 05:50:27;;;;;;;9.07;2.58;;;9.00;99.90;;;;;;5161396;23;20391;-64
2022/02/24 05:52:28;;;;;;;7.53;2.25;;;9.00;99.90;;;;;;5161386;23;20066;-64
2022/02/24 05:54:28;;;;;;;8.30;2.15;;;9.00;99.90;;;;;;5162294;23;20004;-65
2022/02/24 05:56:29;;;;;;;10.85;2.45;;;9.00;99.90;;;;;;5161026;23;20027;-65
2022/02/24 05:58:30;;;;;;;9.38;2.42;;;9.00;99.90;;;;;;5161449;23;20015;-65
2022/02/24 06:00:31;;;;;;;11.43;2.85;;;9.00;99.90;;;;;;5161219;23;20012;-65
2022/02/24 06:02:31;;;;;;;14.80;2.90;;;9.00;99.90;;;;;;5161785;23;20062;-64
2022/02/24 06:04:32;;;;;;;10.32;2.45;;;9.00;99.90;;;;;;5161918;23;20378;-64
2022/02/24 06:06:32;;;;;;;8.13;2.42;;;9.00;99.90;;;;;;5160695;23;20008;-64
2022/02/24 06:08:33;;;;;;;9.10;2.30;;;9.00;99.90;;;;;;5134394;23;20080;-65
2022/02/24 06:10:33;;;;;;;7.43;2.33;;;9.00;99.90;;;;;;5160562;23;20012;-65
2022/02/24 06:12:34;;;;;;;12.27;3.10;;;9.00;99.90;;;;;;5161897;23;20432;-65
2022/02/24 06:14:35;;;;;;;8.10;2.30;;;8.90;99.90;;;;;;5134472;23;20012;-65
2022/02/24 06:16:35;;;;;;;9.98;2.10;;;9.00;99.90;;;;;;5160981;23;20050;-65
2022/02/24 06:18:36;;;;;;;9.23;2.58;;;9.00;99.90;;;;;;5162019;23;20024;-65
2022/02/24 06:20:37;;;;;;;8.43;2.30;;;9.00;99.90;;;;;;5160748;23;20012;-65
2022/02/24 06:22:38;;;;;;;7.63;2.13;;;9.00;99.90;;;;;;5159778;23;20091;-65
2022/02/24 06:24:38;;;;;;;8.20;2.65;;;8.90;99.90;;;;;;5161805;23;20004;-65
2022/02/24 06:26:39;;;;;;;9.45;2.72;;;8.90;99.90;;;;;;5160715;23;20019;-65
2022/02/24 06:28:39;;;;;;;15.02;2.67;;;8.90;99.90;;;;;;5161492;23;20073;-64
2022/02/24 06:30:40;;;;;;;5.45;1.95;;;8.90;99.90;;;;;;5160595;23;20047;-64
2022/02/24 06:32:41;;;;;;;13.35;2.90;;;8.90;99.90;;;;;;5161589;23;20012;-64
2022/02/24 06:34:43;;;;;;;7.68;2.60;;;8.90;99.90;;;;;;5134271;23;20532;-64
2022/02/24 06:36:43;;;;;;;6.65;2.72;;;8.90;99.90;;;;;;5160678;23;20042;-64
2022/02/24 06:38:44;;;;;;;7.57;2.50;;;8.90;99.90;;;;;;5161128;23;20470;-64
2022/02/24 06:40:44;;;;;;;7.68;2.40;;;8.90;99.90;;;;;;5160426;23;20012;-65
2022/02/24 06:42:45;;;;;;;5.65;2.20;;;8.80;99.90;;;;;;5160970;23;20016;-64
2022/02/24 06:44:46;;;;;;;8.35;2.28;;;8.80;99.90;;;;;;5161188;23;20070;-65
2022/02/24 06:46:46;;;;;;;5.05;2.08;;;8.80;99.90;;;;;;5160510;23;20042;-64
2022/02/24 06:48:47;;;;;;;5.63;2.08;;;8.90;99.90;;;;;;5160584;23;20083;-64
2022/02/24 06:50:49;;;;;;;9.73;2.80;;;8.90;99.90;;;;;;5159622;23;20004;-64
2022/02/24 06:52:49;;;;;;;6.95;2.47;;;8.90;99.90;;;;;;5160469;23;20008;-64
2022/02/24 06:54:50;;;;;;;9.00;2.05;;;8.90;99.90;;;;;;5133635;23;20032;-64
2022/02/24 06:56:51;;;;;;;8.43;2.53;;;8.90;99.90;;;;;;5160084;23;20373;-64
2022/02/24 06:58:51;;;;;;;6.47;2.05;;;8.90;99.90;;;;;;5160124;23;20419;-64
2022/02/24 07:00:52;;;;;;;6.53;2.35;;;8.90;99.90;;;;;;5159280;23;20023;-65
2022/02/24 07:02:53;;;;;;;7.03;2.33;;;8.90;99.90;;;;;;5161104;23;20141;-65
2022/02/24 07:04:53;;;;;;;6.53;2.05;;;8.90;99.90;;;;;;5160557;23;20423;-65
2022/02/24 07:06:57;;;;;;;4.22;1.70;;;8.90;99.90;;;;;;5159969;23;20024;-65
2022/02/24 07:08:58;;;;;;;8.00;2.28;;;9.00;99.90;;;;;;5159198;23;20064;-64
2022/02/24 07:10:58;;;;;;;8.73;2.15;;;8.90;99.90;;;;;;5160180;23;20027;-64
2022/02/24 07:12:59;;;;;;;7.07;1.95;;;8.90;99.90;;;;;;5157331;23;20012;-64
2022/02/24 07:15:00;;;;;;;8.55;2.83;;;8.80;99.90;;;;;;5161261;23;20012;-64
2022/02/24 07:17:00;;;;;;;7.07;1.88;;;8.80;99.90;;;;;;5160278;23;20450;-65
2022/02/24 07:19:02;;;;;;;6.43;2.20;;;8.90;99.90;;;;;;5160264;23;20149;-65
2022/02/24 07:21:02;;;;;;;6.70;2.17;;;8.80;99.90;;;;;;5159786;23;20016;-65
2022/02/24 07:23:03;;;;;;;8.93;3.03;;;8.90;99.90;;;;;;5160127;23;20339;-64
2022/02/24 07:25:05;;;;;;;7.75;2.00;;;8.80;99.90;;;;;;5160670;23;20453;-65
2022/02/24 07:27:05;;;;;;;7.43;2.30;;;8.80;99.90;;;;;;5159456;23;20027;-65
2022/02/24 07:29:06;;;;;;;7.78;1.98;;;8.80;99.90;;;;;;5161419;23;20012;-65
2022/02/24 07:31:07;;;;;;;5.47;1.88;;;8.90;99.90;;;;;;5159258;23;20004;-65
2022/02/24 07:33:07;;;;;;;3.95;1.42;;;8.90;99.90;;;;;;5161464;23;20436;-65
2022/02/24 07:35:08;;;;;;;11.40;2.33;;;8.90;99.90;;;;;;5160992;23;20395;-65
2022/02/24 07:37:09;;;;;;;8.00;2.85;;;8.90;99.90;;;;;;5160355;23;20012;-65
2022/02/24 07:39:15;;;;;;;6.78;2.10;;;8.90;99.90;;;;;;5160945;23;20054;-65
2022/02/24 07:41:16;;;;;;;8.23;2.13;;;8.90;99.90;;;;;;5160133;23;20004;-65
2022/02/24 07:43:16;;;;;;;13.95;2.90;;;8.90;99.90;;;;;;5158385;23;20039;-65
2022/02/24 07:45:17;;;;;;;8.55;2.28;;;8.90;99.90;;;;;;5131171;23;20054;-65
2022/02/24 07:47:18;;;;;;;11.32;2.45;;;8.90;99.90;;;;;;5158722;23;20034;-65
2022/02/24 07:49:22;;;;;;;9.05;2.35;;;8.90;99.90;;;;;;5158597;23;20020;-64
2022/02/24 07:51:23;;;;;;;4.72;1.50;;;9.00;99.90;;;;;;5158449;23;20016;-65
2022/02/24 07:53:24;;;;;;;6.90;2.10;;;9.00;99.90;;;;;;5161515;23;20045;-64
2022/02/24 07:55:25;;;;;;;7.95;2.13;;;9.00;99.90;;;;;;5161516;23;20016;-64
2022/02/24 07:57:25;;;;;;;8.18;2.28;;;9.00;99.90;;;;;;5160594;23;20322;-65
2022/02/24 07:59:26;;;;;;;7.07;2.08;;;9.00;99.90;;;;;;5161094;23;20023;-64
2022/02/24 08:01:26;;;;;;;9.27;1.83;;;9.00;99.90;;;;;;5161618;23;20012;-64
2022/02/24 08:03:27;;;;;;;13.07;2.22;;;9.00;99.90;;;;;;5162361;23;20333;-65
2022/02/24 08:05:28;;;;;;;6.57;2.13;;;9.00;99.90;;;;;;5161717;23;20008;-65
2022/02/24 08:07:29;;;;;;;13.00;2.47;;;9.10;99.90;;;;;;5161676;23;20011;-65
2022/02/24 08:09:29;;;;;;;6.47;1.90;;;9.00;99.90;;;;;;5162096;23;20446;-64
2022/02/24 08:11:30;;;;;;;10.20;2.80;;;9.00;99.90;;;;;;5161205;23;20031;-64
2022/02/24 08:13:30;;;;;;;9.20;2.35;;;9.00;99.90;;;;;;5161974;23;20039;-65
2022/02/24 08:15:31;;;;;;;5.03;1.85;;;9.00;99.90;;;;;;5161350;23;20012;-64
2022/02/24 08:17:32;;;;;;;7.32;2.42;;;9.10;99.90;;;;;;5162191;23;20019;-64
2022/02/24 08:19:34;;;;;;;7.55;2.42;;;9.00;99.90;;;;;;5161545;23;20083;-64
2022/02/24 08:21:35;;;;;;;11.83;2.77;;;9.00;99.90;;;;;;5134263;23;20094;-64
2022/02/24 08:23:36;;;;;;;11.13;3.00;;;9.10;99.90;;;;;;5162454;23;20239;-64
2022/02/24 08:25:38;;;;;;;8.07;2.45;;;9.00;99.90;;;;;;5162095;23;20025;-65
2022/02/24 08:27:39;;;;;;;8.20;2.22;;;9.10;99.90;;;;;;5162979;23;20024;-64
2022/02/24 08:29:40;;;;;;;4.55;2.65;;;9.10;99.90;;;;;;5162255;23;20019;-64
2022/02/24 08:31:40;;;;;;;8.20;2.10;;;9.10;99.90;;;;;;5160867;23;20012;-65
2022/02/24 08:33:41;;;;;;;6.57;2.15;;;9.10;99.90;;;;;;5162267;23;20436;-64
2022/02/24 08:35:41;;;;;;;9.50;2.30;;;9.20;99.90;;;;;;5161498;23;20091;-64
2022/02/24 08:37:47;;;;;;;10.27;2.30;;;9.20;99.90;;;;;;5162481;23;20041;-65
2022/02/24 08:39:48;;;;;;;10.80;2.78;;;9.20;99.90;;;;;;5161797;23;20018;-64
2022/02/24 08:41:48;;;;;;;9.40;2.33;;;9.20;99.90;;;;;;5160961;23;20036;-64
2022/02/24 08:43:49;;;;;;;10.70;2.17;;;9.20;99.90;;;;;;5162069;23;20478;-65
2022/02/24 08:45:51;;;;;;;11.07;2.63;;;9.20;99.90;;;;;;5160330;23;20095;-64
2022/02/24 08:47:52;;;;;;;7.00;1.80;;;9.30;99.90;;;;;;5161827;23;20258;-65
2022/02/24 08:49:52;;;;;;;11.05;2.40;;;9.30;99.90;;;;;;5161101;23;20050;-65
2022/02/24 08:51:53;;;;;;;7.07;2.20;;;9.30;99.90;;;;;;5160119;23;20008;-66
2022/02/24 08:53:53;;;;;;;6.60;2.47;;;9.30;99.90;;;;;;5162206;23;20019;-66
2022/02/24 08:55:54;;;;;;;8.35;2.78;;;9.30;99.90;;;;;;5161239;23;20013;-66
2022/02/24 08:57:54;;;;;;;12.13;2.47;;;9.30;99.90;;;;;;5162409;23;20039;-66
2022/02/24 08:59:55;;;;;;;9.77;2.47;;;9.30;99.90;;;;;;5160908;23;20038;-65
2022/02/24 09:01:56;;;;;;;6.18;2.33;;;9.30;99.90;;;;;;5161664;23;20008;-65
2022/02/24 09:03:56;;;;;;;9.73;3.03;;;9.40;99.90;;;;;;5161637;23;20118;-65
2022/02/24 09:05:57;;;;;;;15.38;2.58;;;9.40;99.90;;;;;;5161469;23;20004;-66
2022/02/24 09:07:57;;;;;;;9.55;2.47;;;9.40;99.90;;;;;;5161915;23;20024;-65
2022/02/24 09:09:58;;;;;;;6.05;2.05;;;9.50;99.90;;;;;;5161469;23;20351;-65
2022/02/24 09:11:59;;;;;;;12.25;2.42;;;9.50;99.90;;;;;;5160554;23;20108;-65
2022/02/24 09:14:00;;;;;;;7.07;1.90;;;9.50;99.90;;;;;;5161638;23;20011;-66
2022/02/24 09:16:01;;;;;;;9.13;2.90;;;9.60;99.90;;;;;;5160677;23;20043;-65
2022/02/24 09:18:06;;;;;;;7.60;2.58;;;9.60;99.90;;;;;;5161365;23;20012;-65
2022/02/24 09:20:08;;;;;;;8.18;2.60;;;9.60;99.90;;;;;;5159873;23;20036;-67
2022/02/24 09:22:08;;;;;;;5.63;1.88;;;9.70;99.90;;;;;;5161901;23;20019;-66
2022/02/24 09:24:09;;;;;;;14.13;2.97;;;9.80;99.90;;;;;;5161789;23;20000;-65
2022/02/24 09:26:10;;;;;;;7.93;1.83;;;9.90;99.90;;;;;;5161625;23;20388;-65
2022/02/24 09:28:11;;;;;;;7.28;2.25;;;10.00;99.90;;;;;;5161718;23;20016;-65
2022/02/24 09:30:12;;;;;;;10.13;2.58;;;10.10;99.90;;;;;;5160895;23;20081;-65
2022/02/24 09:32:12;;;;;;;10.48;2.55;;;10.20;99.90;;;;;;5161693;23;20547;-65
2022/02/24 09:34:15;;;;;;;9.95;2.92;;;10.30;99.90;;;;;;5161989;23;20115;-65
2022/02/24 09:36:16;;;;;;;;;;;10.30;99.90;;;;;;5161503;23;20023;-65
2022/02/24 09:38:16;;;;;;;10.30;2.75;;;10.40;99.90;;;;;;5161354;23;20032;-65
2022/02/24 09:40:17;;;;;;;6.25;1.98;;;10.50;99.90;;;;;;5160319;23;20023;-66
2022/02/24 09:42:19;;;;;;;6.32;2.20;;;10.50;99.90;;;;;;5133410;23;20017;-65
2022/02/24 09:44:19;;;;;;;11.57;2.75;;;10.60;99.90;;;;;;5160976;23;20015;-65
2022/02/24 09:46:20;;;;;;;8.60;2.15;;;10.70;99.90;;;;;;5160553;23;20394;-65
2022/02/24 09:48:28;;;;;;;7.65;1.98;;;10.80;99.90;;;;;;5161071;23;20084;-65
2022/02/24 09:50:29;;;;;;;6.13;1.95;;;10.80;99.90;;;;;;5159579;23;20012;-65
2022/02/24 09:52:30;;;;;;;7.22;2.25;;;10.80;99.90;;;;;;5160690;23;20009;-65
2022/02/24 09:54:31;;;;;;;8.48;2.38;;;10.90;99.90;;;;;;5161128;23;20027;-65
2022/02/24 09:56:31;;;;;;;7.18;2.15;;;11.00;99.90;;;;;;5159963;23;20069;-65
2022/02/24 09:58:32;;;;;;;6.20;1.73;;;11.10;99.90;;;;;;5160999;23;20004;-65
2022/02/24 10:00:32;;;;;;;11.15;2.60;;;11.20;99.90;;;;;;5159495;23;20023;-65
2022/02/24 10:02:34;;;;;;;3.00;1.88;;;11.30;99.90;;;;;;5160640;23;20011;-65
2022/02/24 10:04:35;;;;;;;8.57;2.00;;;11.30;99.90;;;;;;5161186;23;20031;-65
2022/02/24 10:06:41;;;;;;;9.52;2.00;;;11.20;99.90;;;;;;5159423;23;20509;-65
2022/02/24 10:08:44;;;;;;;8.35;2.58;;;11.20;99.90;;;;;;5161096;23;20008;-65
2022/02/24 10:10:45;;;;;;;;;;;11.20;99.90;;;;;;5160178;23;20004;-65
2022/02/24 10:12:59;;;;;;;6.82;2.00;;;11.30;99.90;;;;;;5160617;23;20220;-65
2022/02/24 10:15:12;;;;;;;10.65;2.08;;;11.30;99.90;;;;;;5160365;23;20380;-65
2022/02/24 10:17:15;;;;;;;;;;;11.30;99.90;;;;;;5161133;23;20078;-65
2022/02/24 10:19:15;;;;;;;7.63;1.73;;;11.30;99.90;;;;;;5160383;23;20240;-65
2022/02/24 10:21:18;;;;;;;8.82;2.22;;;11.30;99.90;;;;;;5160050;23;20091;-65
2022/02/24 10:23:20;;;;;;;8.27;2.05;;;11.30;99.90;;;;;;5160753;23;20012;-65
2022/02/24 10:25:22;;;;;;;6.90;2.00;;;11.20;99.90;;;;;;5159938;23;20019;-65
2022/02/24 10:27:30;;;;;;;8.25;2.00;;;11.20;99.90;;;;;;5160474;23;20016;-65
2022/02/24 10:29:30;;;;;;;10.65;2.20;;;11.20;99.90;;;;;;5160147;23;20019;-65
2022/02/24 10:31:31;;;;;;;8.70;2.15;;;11.20;99.90;;;;;;5159865;23;20008;-65
2022/02/24 10:33:32;;;;;;;10.48;2.17;;;11.20;99.90;;;;;;5160955;23;20551;-65
2022/02/24 10:35:38;;;;;;;10.93;2.15;;;11.40;99.90;;;;;;5160270;23;20000;-65
2022/02/24 10:37:40;;;;;;;9.10;2.28;;;11.40;99.90;;;;;;5160476;23;20455;-65